KTWF/TWF METAR and TAF weather

Enter ICAO airport designator
Station Type Date Time Source
KTWF METAR 2020/01/22 14:53 UTC NOAA

KTWF 221453Z 23011KT 10SM BKN070 01/M02 A3013 RMK AO2 SLP199 T00061022 53016


Station Type Date Time Source
KTWF Decoded METAR 2020/01/22 14:53 UTC NOAA

JOSLIN FLD-MAGIC VALLEY REGL, ID, United States (KTWF) 42-29N 114-29W 1266M
Jan 22, 2020 - 09:53 AM EST / 2020.01.22 1453 UTC
Wind: from the SW (230 degrees) at 13 MPH (11 KT):0
Visibility: 10 mile(s):0
Sky conditions: mostly cloudy
Temperature: 33.1 F (0.6 C)
Windchill: 23 F (-5 C):1
Dew Point: 28.0 F (-2.2 C)
Relative Humidity: 81%
Pressure (altimeter): 30.13 in. Hg (1020 hPa)
Pressure tendency: 0.05 inches (1.6 hPa) higher than three hours ago
ob: KTWF 221453Z 23011KT 10SM BKN070 01/M02 A3013 RMK AO2 SLP199 T00061022 53016
cycle: 15

Station Type Date Time Source
KTWF TAF 2020/01/22 12:22 UTC NOAA

TAF KTWF 221120Z 2212/2312 23012KT P6SM OVC060
FM230300 19010KT P6SM OVC040

Example: see airport list